Time;durP1;ratioP1;P1;durP2;ratioP2;P2;SDS_P1;SDS_P2;PMS_P1;PMS_P2;Temp;Humidity;BMP_temperature;BMP_pressure;BME280_temperature;BME280_humidity;BME280_pressure;Samples;Min_cycle;Max_cycle;Signal;HPM_P1;HPM_P2
2021/05/23 00:02:18;;;;;;;21.23;8.93;;;11.00;87.80;;;;;;5024763;28;20394;-71
2021/05/23 00:04:45;;;;;;;17.80;8.43;;;11.00;87.20;;;;;;5022864;28;20440;-71
2021/05/23 00:07:11;;;;;;;24.08;8.90;;;11.00;87.20;;;;;;5033154;28;20045;-71
2021/05/23 00:09:37;;;;;;;20.38;8.70;;;11.00;87.30;;;;;;5024465;28;20676;-71
2021/05/23 00:12:04;;;;;;;17.50;8.68;;;11.00;87.20;;;;;;5026474;28;20033;-71
2021/05/23 00:14:30;;;;;;;18.45;7.72;;;10.90;87.30;;;;;;5023236;28;20053;-70
2021/05/23 00:16:56;;;;;;;19.27;7.97;;;10.90;87.00;;;;;;5027050;28;20490;-71
2021/05/23 00:19:22;;;;;;;18.25;8.20;;;11.00;86.90;;;;;;5029063;28;20042;-70
2021/05/23 00:21:47;;;;;;;14.27;7.63;;;11.00;86.60;;;;;;5028352;28;20401;-71
2021/05/23 00:24:13;;;;;;;17.30;7.60;;;11.00;86.80;;;;;;5019591;28;20131;-71
2021/05/23 00:26:39;;;;;;;16.90;7.85;;;11.00;86.70;;;;;;5019439;28;20057;-71
2021/05/23 00:29:05;;;;;;;15.35;7.55;;;11.00;86.60;;;;;;5010120;28;20042;-71
2021/05/23 00:31:32;;;;;;;17.88;7.90;;;10.90;86.50;;;;;;5018034;28;20056;-72
2021/05/23 00:33:58;;;;;;;18.27;7.57;;;10.90;86.50;;;;;;5028093;28;20125;-71
2021/05/23 00:36:24;;;;;;;18.27;7.50;;;10.90;86.60;;;;;;5030382;28;20040;-71
2021/05/23 00:38:50;;;;;;;18.05;8.05;;;10.80;86.50;;;;;;5025842;28;20112;-71
2021/05/23 00:41:16;;;;;;;17.70;6.53;;;10.90;86.50;;;;;;5037048;28;20095;-73
2021/05/23 00:43:42;;;;;;;16.30;7.68;;;10.90;86.50;;;;;;5030471;28;20034;-71
2021/05/23 00:46:08;;;;;;;17.70;6.97;;;10.90;86.40;;;;;;5026447;28;20116;-71
2021/05/23 00:48:33;;;;;;;14.43;6.63;;;10.90;86.40;;;;;;5029727;28;20037;-71
2021/05/23 00:50:59;;;;;;;13.70;6.57;;;10.80;86.40;;;;;;5028688;28;20561;-72
2021/05/23 00:53:25;;;;;;;17.50;6.20;;;10.80;86.40;;;;;;5022851;28;20037;-71
2021/05/23 00:55:51;;;;;;;14.25;6.40;;;10.90;85.90;;;;;;5027570;28;20037;-71
2021/05/23 00:58:18;;;;;;;16.67;6.07;;;10.90;85.80;;;;;;5029806;28;20103;-71
2021/05/23 01:00:47;;;;;;;17.23;5.97;;;10.90;85.60;;;;;;5009090;28;20493;-71
2021/05/23 01:03:45;;;;;;;17.60;5.88;;;10.90;85.40;;;;;;5023651;28;20052;-71
2021/05/23 01:06:11;;;;;;;13.98;4.68;;;10.90;85.10;;;;;;5027868;28;20041;-71
2021/05/23 01:08:38;;;;;;;15.75;4.88;;;10.90;84.80;;;;;;5028847;28;20045;-72
2021/05/23 01:11:16;;;;;;;11.98;4.57;;;10.80;84.80;;;;;;5026598;28;20041;-71
2021/05/23 01:13:57;;;;;;;13.40;4.50;;;10.80;85.00;;;;;;5028554;28;20049;-71
2021/05/23 01:16:40;;;;;;;18.13;4.85;;;10.80;84.70;;;;;;5026396;28;21021;-72
2021/05/23 01:19:28;;;;;;;13.13;5.43;;;10.90;84.90;;;;;;5027829;28;20446;-71
2021/05/23 01:22:05;;;;;;;20.20;5.97;;;10.90;84.80;;;;;;5032223;28;20052;-71
2021/05/23 01:24:36;;;;;;;16.38;4.60;;;10.80;85.00;;;;;;5028116;28;20725;-71
2021/05/23 01:27:02;;;;;;;13.40;5.00;;;10.80;85.10;;;;;;5023013;28;20072;-72
2021/05/23 01:29:29;;;;;;;15.27;5.68;;;10.80;85.30;;;;;;5011150;28;20473;-71
2021/05/23 01:31:55;;;;;;;18.17;5.15;;;10.80;85.30;;;;;;5024325;28;20401;-70
2021/05/23 01:34:22;;;;;;;18.00;5.35;;;10.90;85.50;;;;;;5023470;28;20208;-71
2021/05/23 01:36:53;;;;;;;20.58;5.85;;;10.80;85.70;;;;;;5023378;28;20109;-71
2021/05/23 01:39:18;;;;;;;17.52;5.18;;;10.80;85.90;;;;;;5021036;28;20064;-71
2021/05/23 01:41:44;;;;;;;16.02;4.78;;;10.80;85.80;;;;;;5026253;28;20026;-71
2021/05/23 01:44:11;;;;;;;15.98;5.05;;;10.70;85.90;;;;;;5012369;28;20042;-71
2021/05/23 01:46:38;;;;;;;19.83;5.47;;;10.70;86.00;;;;;;4999784;28;20517;-72
2021/05/23 01:49:05;;;;;;;18.10;4.03;;;10.70;86.30;;;;;;5017902;28;20056;-71
2021/05/23 01:51:31;;;;;;;19.58;4.97;;;10.70;86.00;;;;;;5027858;28;20053;-70
2021/05/23 01:53:58;;;;;;;15.27;4.80;;;10.70;85.80;;;;;;5027157;28;20406;-71
2021/05/23 01:56:24;;;;;;;14.82;4.75;;;10.70;85.70;;;;;;5027926;28;20083;-73
2021/05/23 01:58:49;;;;;;;17.85;5.00;;;10.70;85.40;;;;;;5027348;28;20042;-71
2021/05/23 02:01:15;;;;;;;18.08;4.25;;;10.70;85.30;;;;;;5026667;28;20465;-71
2021/05/23 02:03:41;;;;;;;17.15;4.57;;;10.70;85.40;;;;;;5026898;28;20029;-71
2021/05/23 02:06:07;;;;;;;13.95;3.70;;;10.70;85.40;;;;;;5027501;28;20036;-71
2021/05/23 02:08:33;;;;;;;14.85;5.03;;;10.70;85.30;;;;;;5028012;28;20536;-71
2021/05/23 02:11:07;;;;;;;14.05;4.05;;;10.70;85.30;;;;;;5028041;28;20037;-71
2021/05/23 02:13:33;;;;;;;22.40;5.72;;;10.70;85.10;;;;;;5024151;28;20488;-71
2021/05/23 02:16:00;;;;;;;18.67;4.38;;;10.60;85.00;;;;;;5022943;28;20034;-70
2021/05/23 02:18:26;;;;;;;14.80;4.05;;;10.60;84.80;;;;;;5027806;28;20047;-71
2021/05/23 02:20:51;;;;;;;17.98;4.72;;;10.60;84.80;;;;;;5026429;28;20041;-71
2021/05/23 02:23:22;;;;;;;17.60;4.00;;;10.60;84.80;;;;;;5027594;28;20405;-71
2021/05/23 02:25:50;;;;;;;23.55;5.13;;;10.50;84.30;;;;;;5021750;28;20080;-71
2021/05/23 02:28:16;;;;;;;19.17;4.25;;;10.50;84.40;;;;;;5022617;28;20037;-71
2021/05/23 02:30:45;;;;;;;21.38;4.80;;;10.50;84.40;;;;;;5024912;28;20034;-70
2021/05/23 02:33:13;;;;;;;15.10;4.57;;;10.50;84.30;;;;;;5017988;28;20041;-70
2021/05/23 02:35:42;;;;;;;15.88;4.38;;;10.50;84.10;;;;;;5023683;28;20034;-71
2021/05/23 02:38:09;;;;;;;16.90;4.28;;;10.50;84.00;;;;;;5010090;28;20044;-71
2021/05/23 02:40:36;;;;;;;15.63;3.85;;;10.50;83.70;;;;;;5010051;28;20033;-71
2021/05/23 02:43:03;;;;;;;15.10;3.83;;;10.40;83.20;;;;;;5026575;28;20047;-71
2021/05/23 02:45:29;;;;;;;14.45;3.38;;;10.40;83.50;;;;;;5020560;28;20441;-71
2021/05/23 02:47:55;;;;;;;14.73;3.67;;;10.30;83.30;;;;;;5026155;28;20046;-71
2021/05/23 02:50:22;;;;;;;19.73;3.33;;;10.30;83.20;;;;;;5021105;28;20025;-73
2021/05/23 02:52:48;;;;;;;16.33;3.83;;;10.20;82.90;;;;;;5010199;28;20598;-71
2021/05/23 02:55:16;;;;;;;19.65;4.07;;;10.20;83.00;;;;;;5022865;28;20546;-71
2021/05/23 02:57:42;;;;;;;17.85;4.22;;;10.10;83.00;;;;;;5022941;28;20371;-71
2021/05/23 03:00:10;;;;;;;15.10;3.88;;;10.10;82.90;;;;;;5025889;28;20051;-71
2021/05/23 03:02:36;;;;;;;13.57;3.65;;;10.00;83.10;;;;;;5023725;28;20112;-71
2021/05/23 03:05:07;;;;;;;15.43;3.70;;;9.90;82.90;;;;;;5023204;28;20456;-71
2021/05/23 03:07:41;;;;;;;18.15;3.35;;;9.80;83.00;;;;;;5027608;28;20489;-70
2021/05/23 03:10:10;;;;;;;16.55;3.97;;;9.70;82.90;;;;;;5018091;28;20044;-72
2021/05/23 03:12:36;;;;;;;15.38;4.03;;;9.60;82.70;;;;;;5015522;28;20041;-70
2021/05/23 03:15:03;;;;;;;20.08;4.45;;;9.60;82.90;;;;;;5023562;28;20124;-71
2021/05/23 03:17:29;;;;;;;17.25;3.50;;;9.50;83.00;;;;;;5023150;28;20037;-71
2021/05/23 03:19:54;;;;;;;16.85;3.45;;;9.40;83.00;;;;;;5012367;28;20120;-71
2021/05/23 03:22:20;;;;;;;18.90;4.45;;;9.40;82.80;;;;;;5021877;28;20044;-71
2021/05/23 03:24:46;;;;;;;12.30;2.88;;;9.30;82.70;;;;;;5019746;28;20033;-71
2021/05/23 03:27:11;;;;;;;11.88;3.22;;;9.30;82.70;;;;;;5025106;28;20087;-70
2021/05/23 03:29:37;;;;;;;15.07;3.80;;;9.30;83.00;;;;;;5027219;28;20033;-71
2021/05/23 03:32:03;;;;;;;10.82;2.97;;;9.20;82.80;;;;;;5015868;28;20042;-71
2021/05/23 03:34:29;;;;;;;12.13;3.30;;;9.20;82.90;;;;;;5018230;28;20076;-72
2021/05/23 03:36:54;;;;;;;17.20;4.13;;;9.10;82.90;;;;;;5012763;28;20117;-70
2021/05/23 03:39:20;;;;;;;10.85;3.47;;;9.10;82.80;;;;;;5006299;28;20045;-71
2021/05/23 03:41:46;;;;;;;15.70;3.75;;;9.10;83.00;;;;;;5023337;28;20170;-71
2021/05/23 03:44:11;;;;;;;13.27;3.17;;;9.10;83.00;;;;;;5028096;28;20476;-71
2021/05/23 03:46:37;;;;;;;16.65;3.75;;;9.10;82.50;;;;;;5020755;28;20049;-71
2021/05/23 03:49:03;;;;;;;13.82;3.35;;;9.00;82.50;;;;;;5019392;28;20029;-72
2021/05/23 03:51:29;;;;;;;14.68;3.03;;;9.10;82.40;;;;;;5016051;28;20033;-70
2021/05/23 03:53:55;;;;;;;11.30;3.35;;;9.10;82.10;;;;;;5021151;28;20040;-71
2021/05/23 03:56:20;;;;;;;12.23;3.42;;;9.10;82.30;;;;;;5008797;28;20473;-71
2021/05/23 03:58:46;;;;;;;15.00;3.88;;;9.00;82.20;;;;;;5024163;28;20042;-71
2021/05/23 04:01:12;;;;;;;14.40;3.53;;;9.10;81.60;;;;;;5008063;28;20758;-71
2021/05/23 04:03:38;;;;;;;12.88;3.38;;;9.10;81.60;;;;;;5020681;28;20042;-71
2021/05/23 04:06:04;;;;;;;15.05;3.40;;;9.00;81.30;;;;;;5017688;28;20113;-71
2021/05/23 04:08:30;;;;;;;10.98;2.78;;;9.00;81.40;;;;;;5017528;28;20473;-71
2021/05/23 04:11:12;;;;;;;15.02;4.00;;;9.00;81.20;;;;;;5018675;28;20064;-70
2021/05/23 04:13:40;;;;;;;13.65;2.97;;;9.00;81.20;;;;;;5012718;28;20025;-72
2021/05/23 04:16:07;;;;;;;11.27;2.58;;;8.90;80.80;;;;;;5016600;28;20029;-72
2021/05/23 04:18:32;;;;;;;17.00;4.05;;;9.00;80.90;;;;;;5017017;28;20037;-71
2021/05/23 04:20:58;;;;;;;9.93;2.72;;;9.00;80.70;;;;;;5016521;28;20397;-71
2021/05/23 04:23:24;;;;;;;11.43;3.35;;;9.00;80.60;;;;;;5019654;28;20042;-71
2021/05/23 04:25:51;;;;;;;12.48;3.05;;;9.10;80.30;;;;;;5016608;28;20068;-71
2021/05/23 04:28:16;;;;;;;11.40;2.92;;;9.10;80.40;;;;;;5016918;28;20056;-71
2021/05/23 04:30:42;;;;;;;14.77;3.53;;;9.10;80.30;;;;;;5017966;28;20038;-71
2021/05/23 04:33:08;;;;;;;13.07;3.40;;;9.10;80.30;;;;;;5017783;28;20053;-71
2021/05/23 04:35:34;;;;;;;15.38;4.75;;;9.10;80.30;;;;;;5007540;28;20030;-71
2021/05/23 04:38:01;;;;;;;17.25;3.63;;;9.10;80.10;;;;;;5000772;28;20397;-71
2021/05/23 04:40:28;;;;;;;13.75;3.10;;;9.20;80.00;;;;;;5010296;28;20030;-71
2021/05/23 04:42:53;;;;;;;13.95;3.13;;;9.20;79.90;;;;;;5018910;28;20041;-71
2021/05/23 04:45:19;;;;;;;14.55;3.00;;;9.20;79.90;;;;;;5016455;28;20033;-71
2021/05/23 04:47:45;;;;;;;9.77;2.97;;;9.30;79.60;;;;;;5016007;28;20042;-72
2021/05/23 04:50:11;;;;;;;11.98;3.17;;;9.40;79.30;;;;;;5021522;28;20037;-71
2021/05/23 04:52:37;;;;;;;11.27;2.67;;;9.40;79.20;;;;;;5021476;28;20052;-71
2021/05/23 04:55:04;;;;;;;15.98;3.85;;;9.50;79.00;;;;;;5019124;28;20037;-71
2021/05/23 04:57:30;;;;;;;13.13;2.95;;;9.60;79.10;;;;;;5023974;28;20155;-73
2021/05/23 04:59:56;;;;;;;11.95;3.78;;;9.60;78.90;;;;;;5020766;28;20040;-70
2021/05/23 05:02:22;;;;;;;11.60;3.28;;;9.70;78.70;;;;;;5024624;28;20042;-72
2021/05/23 05:04:48;;;;;;;12.90;3.10;;;9.70;78.20;;;;;;5023781;28;20037;-71
2021/05/23 05:07:14;;;;;;;15.50;3.85;;;9.70;78.30;;;;;;5020437;28;20064;-70
2021/05/23 05:09:40;;;;;;;8.50;2.63;;;9.80;77.70;;;;;;5019863;28;20449;-71
2021/05/23 05:12:06;;;;;;;10.23;2.78;;;9.80;77.60;;;;;;5022973;28;20116;-71
2021/05/23 05:14:32;;;;;;;17.33;4.00;;;9.80;78.00;;;;;;5001724;28;20531;-72
2021/05/23 05:16:58;;;;;;;7.63;2.63;;;9.80;77.70;;;;;;5003228;28;20030;-71
2021/05/23 05:19:24;;;;;;;10.25;2.85;;;10.00;77.20;;;;;;5019619;28;20420;-73
2021/05/23 05:21:50;;;;;;;12.65;2.90;;;11.20;74.50;;;;;;5020325;28;20060;-72
2021/05/23 05:24:15;;;;;;;13.55;3.10;;;12.50;68.90;;;;;;5019541;28;20041;-72
2021/05/23 05:26:42;;;;;;;10.00;2.30;;;13.80;64.70;;;;;;5022889;28;20026;-71
2021/05/23 05:29:07;;;;;;;12.15;2.42;;;14.60;61.10;;;;;;5021330;28;20060;-71
2021/05/23 05:31:33;;;;;;;11.55;2.55;;;15.50;58.10;;;;;;5020375;28;20042;-72
2021/05/23 05:33:59;;;;;;;8.20;2.15;;;16.10;56.30;;;;;;5021246;28;20026;-73
2021/05/23 05:36:26;;;;;;;9.95;2.50;;;16.50;53.30;;;;;;5009408;28;20081;-71
2021/05/23 05:38:51;;;;;;;11.13;2.75;;;16.60;52.20;;;;;;5009209;28;20121;-71
2021/05/23 05:41:19;;;;;;;9.55;2.30;;;16.50;53.10;;;;;;5002479;28;20116;-71
2021/05/23 05:43:45;;;;;;;11.80;2.65;;;16.70;52.00;;;;;;5017540;28;20067;-71
2021/05/23 05:46:10;;;;;;;9.45;2.40;;;16.60;52.10;;;;;;5020584;28;20440;-71
2021/05/23 05:48:36;;;;;;;8.55;2.20;;;16.70;52.30;;;;;;5017648;28;20040;-72
2021/05/23 05:51:01;;;;;;;8.45;2.22;;;16.30;52.80;;;;;;5017926;28;20100;-71
2021/05/23 05:53:28;;;;;;;11.50;2.40;;;15.50;54.90;;;;;;5018566;28;20125;-73
2021/05/23 05:55:53;;;;;;;10.30;2.92;;;14.60;57.80;;;;;;5020822;28;20032;-71
2021/05/23 05:58:19;;;;;;;10.48;2.83;;;13.80;60.90;;;;;;5019151;28;20053;-72
2021/05/23 06:00:45;;;;;;;10.30;2.60;;;13.00;63.40;;;;;;5020697;28;20746;-71
2021/05/23 06:03:10;;;;;;;9.55;2.28;;;12.30;66.00;;;;;;5018735;28;20061;-73
2021/05/23 06:05:36;;;;;;;15.18;2.85;;;12.10;66.80;;;;;;5019600;28;20040;-71
2021/05/23 06:08:02;;;;;;;9.43;2.63;;;12.10;67.80;;;;;;5021365;28;20103;-71
2021/05/23 06:10:28;;;;;;;13.05;3.03;;;11.80;68.70;;;;;;5021231;28;20489;-71
2021/05/23 06:12:53;;;;;;;10.77;2.55;;;11.80;69.20;;;;;;5021644;28;20422;-71
2021/05/23 06:15:19;;;;;;;11.25;2.63;;;11.90;69.60;;;;;;5019993;28;20062;-71
2021/05/23 06:17:45;;;;;;;9.95;2.58;;;12.00;68.90;;;;;;5020229;28;20037;-72
2021/05/23 06:20:11;;;;;;;11.90;3.13;;;12.10;69.10;;;;;;5020609;28;20045;-71
2021/05/23 06:22:37;;;;;;;10.20;3.13;;;12.30;68.60;;;;;;5014577;28;20037;-71
2021/05/23 06:25:04;;;;;;;9.63;2.72;;;12.30;68.70;;;;;;5024511;28;20071;-71
2021/05/23 06:27:30;;;;;;;7.15;2.20;;;12.50;68.20;;;;;;5021068;28;20187;-71
2021/05/23 06:29:56;;;;;;;8.63;2.72;;;12.50;66.80;;;;;;5023990;28;20116;-71
2021/05/23 06:32:21;;;;;;;10.45;3.30;;;12.60;67.60;;;;;;5021110;28;20028;-71
2021/05/23 06:34:47;;;;;;;7.88;2.30;;;12.70;67.10;;;;;;5020169;28;20164;-72
2021/05/23 06:37:13;;;;;;;8.52;2.60;;;12.80;66.40;;;;;;5020369;28;20061;-71
2021/05/23 06:39:39;;;;;;;10.75;2.40;;;12.90;66.50;;;;;;5019929;28;20041;-71
2021/05/23 06:42:05;;;;;;;11.00;2.95;;;13.00;66.60;;;;;;5017837;28;20042;-71
2021/05/23 06:44:31;;;;;;;9.32;2.63;;;12.90;66.00;;;;;;5019409;28;21780;-71
2021/05/23 06:46:57;;;;;;;10.10;2.42;;;12.90;65.80;;;;;;5018662;28;20046;-72
2021/05/23 06:49:23;;;;;;;11.93;2.92;;;13.00;64.60;;;;;;5017215;28;20036;-75
2021/05/23 06:51:48;;;;;;;8.85;2.70;;;13.10;64.60;;;;;;5016738;28;20041;-71
2021/05/23 06:54:14;;;;;;;5.63;2.05;;;13.10;64.50;;;;;;5020027;28;20096;-71
2021/05/23 06:56:40;;;;;;;8.52;2.10;;;13.30;65.10;;;;;;5017259;28;20034;-74
2021/05/23 06:59:06;;;;;;;9.00;2.13;;;13.30;63.60;;;;;;5013525;28;20061;-73
2021/05/23 07:01:32;;;;;;;10.23;2.58;;;13.20;63.50;;;;;;5014258;28;20108;-73
2021/05/23 07:03:59;;;;;;;9.70;2.40;;;13.20;63.00;;;;;;5016697;28;20120;-73
2021/05/23 07:06:25;;;;;;;9.30;2.25;;;13.10;63.50;;;;;;4996807;28;20046;-72
2021/05/23 07:08:50;;;;;;;8.23;2.22;;;13.20;63.90;;;;;;5012544;28;20048;-72
2021/05/23 07:11:16;;;;;;;9.48;2.40;;;13.30;62.50;;;;;;5014818;28;20071;-73
2021/05/23 07:13:42;;;;;;;9.18;2.60;;;13.30;61.60;;;;;;5015981;28;20824;-72
2021/05/23 07:16:07;;;;;;;6.70;2.00;;;13.50;60.80;;;;;;5012861;28;21119;-71
2021/05/23 07:18:33;;;;;;;6.93;1.80;;;13.40;59.90;;;;;;5017594;28;20113;-73
2021/05/23 07:20:59;;;;;;;8.50;2.13;;;13.50;61.40;;;;;;5017758;28;20033;-72
2021/05/23 07:23:27;;;;;;;6.35;1.90;;;13.50;61.00;;;;;;5013571;28;20648;-72
2021/05/23 07:25:52;;;;;;;10.27;2.13;;;13.60;61.70;;;;;;5016314;28;20361;-72
2021/05/23 07:28:18;;;;;;;9.30;2.50;;;13.80;61.70;;;;;;4994804;28;20049;-72
2021/05/23 07:30:44;;;;;;;9.13;2.15;;;14.00;61.40;;;;;;5012889;28;20041;-72
2021/05/23 07:33:10;;;;;;;8.98;2.40;;;13.70;60.40;;;;;;5011590;28;20059;-72
2021/05/23 07:35:36;;;;;;;8.32;1.92;;;13.90;60.60;;;;;;5015220;28;20108;-73
2021/05/23 07:38:02;;;;;;;7.78;2.10;;;14.10;59.20;;;;;;5015668;28;20060;-72
2021/05/23 07:40:28;;;;;;;8.60;2.33;;;13.90;58.80;;;;;;5015310;28;20091;-72
2021/05/23 07:42:53;;;;;;;6.45;2.00;;;14.10;60.50;;;;;;5019574;28;20037;-73
2021/05/23 07:45:19;;;;;;;8.32;2.25;;;14.20;57.70;;;;;;5012105;28;20041;-74
2021/05/23 07:47:45;;;;;;;9.38;2.00;;;14.10;58.60;;;;;;5006825;28;20037;-72
2021/05/23 07:50:13;;;;;;;9.27;2.08;;;14.10;60.20;;;;;;5015899;28;20541;-72
2021/05/23 07:52:39;;;;;;;8.45;2.78;;;14.30;60.10;;;;;;5008734;28;20642;-72
2021/05/23 07:55:05;;;;;;;10.80;2.90;;;13.70;58.40;;;;;;5003393;28;20034;-73
2021/05/23 07:57:31;;;;;;;11.45;2.53;;;13.70;59.70;;;;;;4998690;28;20103;-72
2021/05/23 07:59:57;;;;;;;13.75;2.80;;;13.30;60.20;;;;;;5014789;28;20042;-73
2021/05/23 08:02:23;;;;;;;7.18;2.28;;;13.30;61.70;;;;;;5010361;28;20100;-72
2021/05/23 08:04:48;;;;;;;9.52;2.33;;;13.20;59.10;;;;;;5012359;28;20045;-72
2021/05/23 08:07:14;;;;;;;7.63;2.22;;;13.20;60.50;;;;;;5002053;28;20137;-73
2021/05/23 08:09:40;;;;;;;9.38;1.90;;;13.40;59.30;;;;;;5004191;28;20594;-74
2021/05/23 08:12:06;;;;;;;8.68;2.00;;;13.70;56.90;;;;;;5011128;28;20112;-73
2021/05/23 08:14:32;;;;;;;10.30;2.42;;;13.50;57.00;;;;;;5011726;28;20145;-72
2021/05/23 08:16:57;;;;;;;9.35;2.10;;;13.70;57.50;;;;;;4991013;28;20057;-72
2021/05/23 08:19:23;;;;;;;11.63;2.28;;;13.80;56.80;;;;;;5010550;28;20464;-73
2021/05/23 08:21:49;;;;;;;10.35;2.58;;;13.70;58.10;;;;;;5011793;28;20676;-71
2021/05/23 08:24:15;;;;;;;8.57;2.60;;;13.40;58.60;;;;;;4996166;28;20449;-73
2021/05/23 08:26:41;;;;;;;10.95;2.38;;;13.40;59.80;;;;;;5013298;28;20132;-71
2021/05/23 08:29:07;;;;;;;9.73;2.30;;;13.60;60.10;;;;;;5016380;28;20113;-72
2021/05/23 08:31:33;;;;;;;6.75;1.80;;;13.70;57.00;;;;;;5013224;28;20087;-74
2021/05/23 08:33:59;;;;;;;7.70;1.88;;;14.00;58.20;;;;;;5018917;28;20072;-71
2021/05/23 08:36:25;;;;;;;9.68;2.30;;;14.50;57.50;;;;;;5017208;28;20813;-72
2021/05/23 08:38:51;;;;;;;10.20;2.20;;;14.40;56.70;;;;;;5015088;28;20042;-73
2021/05/23 08:41:18;;;;;;;8.10;2.20;;;14.30;57.00;;;;;;5013804;28;20033;-72
2021/05/23 08:43:45;;;;;;;8.48;2.47;;;14.80;55.80;;;;;;4995357;28;20157;-73
2021/05/23 08:46:12;;;;;;;8.95;2.30;;;15.10;54.10;;;;;;5011644;28;20528;-73
2021/05/23 08:48:39;;;;;;;7.18;1.90;;;15.40;52.70;;;;;;5015694;28;20056;-72
2021/05/23 08:51:05;;;;;;;9.13;2.20;;;15.90;52.50;;;;;;5014889;28;20049;-72
2021/05/23 08:53:31;;;;;;;10.95;2.63;;;16.10;49.60;;;;;;5016396;28;20037;-72
2021/05/23 08:55:56;;;;;;;10.73;2.38;;;16.00;49.60;;;;;;5016721;28;20034;-73
2021/05/23 08:58:25;;;;;;;9.65;1.77;;;16.10;48.40;;;;;;5015023;28;20780;-73
2021/05/23 09:00:52;;;;;;;7.78;2.25;;;16.10;48.20;;;;;;5014447;28;20092;-72
2021/05/23 09:03:18;;;;;;;9.15;2.42;;;16.20;49.00;;;;;;5015985;28;20041;-73
2021/05/23 09:05:50;;;;;;;9.82;2.53;;;16.40;49.00;;;;;;5013290;28;20064;-73
2021/05/23 09:08:22;;;;;;;8.05;1.92;;;16.60;47.80;;;;;;5006466;28;20056;-71
2021/05/23 09:10:50;;;;;;;8.70;2.50;;;16.70;49.40;;;;;;4993644;28;20060;-69
2021/05/23 09:13:32;;;;;;;8.80;2.45;;;16.70;46.80;;;;;;4994214;28;20088;-69
2021/05/23 09:16:11;;;;;;;6.25;1.63;;;16.10;47.70;;;;;;5011934;28;20049;-71
2021/05/23 09:18:47;;;;;;;7.30;2.20;;;15.80;48.70;;;;;;5007359;28;20037;-70
2021/05/23 09:21:33;;;;;;;6.35;1.50;;;15.60;47.80;;;;;;5015862;28;20040;-68
2021/05/23 09:24:13;;;;;;;8.60;2.17;;;15.40;48.70;;;;;;5013928;28;20036;-68
2021/05/23 09:26:40;;;;;;;8.13;2.70;;;15.30;50.00;;;;;;5009425;28;20044;-71
2021/05/23 09:29:27;;;;;;;7.75;2.35;;;15.20;50.80;;;;;;5013463;28;20077;-69
2021/05/23 09:31:58;;;;;;;8.02;2.45;;;15.40;50.10;;;;;;5017927;28;20037;-71
2021/05/23 09:34:27;;;;;;;7.45;1.95;;;14.90;53.60;;;;;;5017766;28;20424;-70
2021/05/23 09:36:53;;;;;;;6.75;2.20;;;15.00;53.60;;;;;;5017275;28;20045;-70
2021/05/23 09:39:19;;;;;;;10.52;2.10;;;14.90;53.10;;;;;;5014619;28;20390;-70
2021/05/23 09:41:46;;;;;;;7.43;2.25;;;14.60;54.50;;;;;;5017965;28;20056;-71
2021/05/23 09:44:19;;;;;;;7.22;2.00;;;14.90;54.40;;;;;;5015901;28;20117;-70
2021/05/23 09:47:07;;;;;;;10.25;2.20;;;15.50;53.10;;;;;;5002370;28;20053;-70
2021/05/23 09:49:40;;;;;;;9.00;2.10;;;16.00;51.70;;;;;;5018462;28;20560;-70
2021/05/23 09:52:16;;;;;;;6.47;1.92;;;16.20;51.00;;;;;;5016223;28;20033;-68
2021/05/23 09:54:53;;;;;;;8.30;2.30;;;15.90;50.50;;;;;;5012803;28;20454;-68
2021/05/23 09:57:20;;;;;;;9.18;2.30;;;15.50;50.10;;;;;;5018483;28;20074;-67
2021/05/23 09:59:57;;;;;;;7.68;2.10;;;15.80;49.90;;;;;;5020252;28;20042;-68
2021/05/23 10:02:23;;;;;;;9.15;2.22;;;15.50;48.80;;;;;;5020242;28;20033;-69
2021/05/23 10:04:49;;;;;;;6.05;1.90;;;15.30;49.30;;;;;;5011416;28;20496;-69
2021/05/23 10:07:15;;;;;;;11.70;2.05;;;15.60;49.80;;;;;;5005988;28;20124;-67
2021/05/23 10:09:40;;;;;;;6.70;2.00;;;16.10;50.30;;;;;;5017423;28;20700;-67
2021/05/23 10:12:09;;;;;;;8.20;2.05;;;16.50;49.50;;;;;;5017085;28;20420;-69
2021/05/23 10:14:35;;;;;;;10.75;2.10;;;16.20;47.50;;;;;;5018850;28;20320;-67
2021/05/23 10:17:02;;;;;;;9.70;2.00;;;16.60;47.30;;;;;;5022901;28;20533;-68
2021/05/23 10:19:31;;;;;;;6.45;1.98;;;16.70;46.90;;;;;;5023753;28;20064;-67
2021/05/23 10:21:59;;;;;;;8.00;2.17;;;16.90;48.10;;;;;;5029265;28;20038;-67
2021/05/23 10:24:47;;;;;;;7.18;2.10;;;17.10;47.00;;;;;;5020200;28;20496;-68
2021/05/23 10:27:17;;;;;;;8.68;2.30;;;17.60;47.10;;;;;;4999939;28;20064;-69
2021/05/23 10:29:46;;;;;;;8.85;2.10;;;17.50;47.20;;;;;;5001132;28;20068;-68
2021/05/23 10:32:15;;;;;;;9.15;2.35;;;17.70;47.50;;;;;;4997689;28;20029;-69
2021/05/23 10:34:43;;;;;;;9.75;1.90;;;17.70;45.80;;;;;;4994556;28;20034;-67
2021/05/23 10:37:10;;;;;;;7.28;2.33;;;17.50;47.00;;;;;;4990256;28;20470;-68
2021/05/23 10:39:42;;;;;;;8.98;1.85;;;17.00;46.70;;;;;;5001764;28;20136;-67
2021/05/23 10:42:12;;;;;;;7.60;1.85;;;17.00;48.70;;;;;;4995297;28;20034;-68
2021/05/23 10:44:48;;;;;;;4.82;1.80;;;16.40;47.50;;;;;;5022201;28;20055;-68
2021/05/23 10:47:27;;;;;;;9.55;2.25;;;16.50;48.00;;;;;;5044677;28;20042;-67
2021/05/23 10:49:58;;;;;;;7.60;1.75;;;16.70;48.20;;;;;;5020204;28;20357;-68
2021/05/23 10:52:29;;;;;;;6.25;1.70;;;17.20;47.10;;;;;;4995284;28;20023;-67
2021/05/23 10:54:55;;;;;;;4.70;1.50;;;17.90;45.00;;;;;;5032081;28;20046;-68
2021/05/23 10:57:21;;;;;;;5.57;1.83;;;17.70;43.60;;;;;;5029327;28;20448;-67
2021/05/23 10:59:58;;;;;;;6.72;1.85;;;17.60;45.40;;;;;;5026787;28;20055;-67
2021/05/23 11:02:36;;;;;;;8.93;1.58;;;17.60;45.70;;;;;;5016679;28;20109;-70
2021/05/23 11:05:10;;;;;;;5.20;2.15;;;17.90;45.00;;;;;;5013630;28;20033;-67
2021/05/23 11:07:35;;;;;;;8.82;2.10;;;18.00;46.00;;;;;;5026844;28;20034;-69
2021/05/23 11:10:12;;;;;;;7.82;1.83;;;18.10;46.20;;;;;;5020490;28;20030;-68
2021/05/23 11:12:47;;;;;;;6.03;1.60;;;17.60;45.40;;;;;;5022963;28;20521;-67
2021/05/23 11:15:13;;;;;;;4.90;1.52;;;17.70;45.80;;;;;;5017880;28;20058;-67
2021/05/23 11:17:39;;;;;;;5.88;1.60;;;17.70;44.20;;;;;;5027781;28;20064;-71
2021/05/23 11:20:25;;;;;;;5.32;1.90;;;18.10;44.20;;;;;;5025902;28;20444;-68
2021/05/23 11:22:56;;;;;;;7.00;1.80;;;18.60;44.40;;;;;;5005393;28;20026;-68
2021/05/23 11:25:21;;;;;;;7.18;1.88;;;18.70;44.80;;;;;;5006662;28;20061;-67
2021/05/23 11:27:56;;;;;;;8.13;3.35;;;19.00;43.30;;;;;;5007215;28;20081;-68
2021/05/23 11:30:22;;;;;;;6.97;3.35;;;18.80;42.60;;;;;;5005641;28;20430;-68
2021/05/23 11:32:57;;;;;;;9.07;4.28;;;18.60;42.80;;;;;;5008382;28;20496;-68
2021/05/23 11:35:23;;;;;;;;;;;18.40;42.40;;;;;;5027945;28;20032;-68
2021/05/23 11:37:52;;;;;;;5.22;1.52;;;18.00;43.30;;;;;;5014309;28;19921;-72
2021/05/23 11:40:18;;;;;;;7.78;1.75;;;17.60;44.90;;;;;;5010682;28;20554;-72
2021/05/23 11:42:44;;;;;;;6.90;2.35;;;17.40;45.60;;;;;;5023703;28;20552;-72
2021/05/23 11:45:24;;;;;;;7.82;2.70;;;17.20;46.80;;;;;;5015743;28;20231;-73
2021/05/23 11:47:51;;;;;;;6.13;1.88;;;17.40;46.80;;;;;;5005033;28;20045;-73
2021/05/23 11:50:22;;;;;;;5.55;1.50;;;17.20;46.80;;;;;;5024290;28;20041;-73
2021/05/23 11:52:53;;;;;;;4.32;1.52;;;17.40;45.40;;;;;;5015796;28;20045;-72
2021/05/23 11:55:19;;;;;;;5.15;1.60;;;17.60;44.80;;;;;;5007775;28;20038;-73
2021/05/23 11:57:49;;;;;;;7.80;1.90;;;17.60;43.60;;;;;;4998402;28;20388;-73
2021/05/23 12:00:21;;;;;;;5.53;1.52;;;17.70;44.50;;;;;;5005786;28;20093;-73
2021/05/23 12:02:57;;;;;;;5.45;1.73;;;17.90;44.40;;;;;;5004634;28;20457;-68
2021/05/23 12:05:40;;;;;;;7.20;1.90;;;17.80;44.90;;;;;;5025540;28;20113;-71
2021/05/23 12:08:20;;;;;;;5.63;1.60;;;17.90;43.70;;;;;;5027688;28;20436;-71
2021/05/23 12:11:06;;;;;;;3.95;1.63;;;17.60;44.60;;;;;;5030157;28;20087;-70
2021/05/23 12:13:37;;;;;;;5.43;1.67;;;17.40;45.50;;;;;;5030299;28;20076;-70
2021/05/23 12:16:04;;;;;;;7.60;2.20;;;17.10;46.20;;;;;;5026490;28;20057;-70
2021/05/23 12:18:52;;;;;;;8.25;3.20;;;17.30;46.80;;;;;;5025355;28;20043;-71
2021/05/23 12:21:20;;;;;;;8.68;2.95;;;17.80;46.70;;;;;;5023357;28;20481;-69
2021/05/23 12:23:48;;;;;;;5.63;1.52;;;18.30;44.10;;;;;;5017899;28;20153;-69
2021/05/23 12:26:16;;;;;;;7.38;1.80;;;18.60;44.90;;;;;;5016334;28;20120;-69
2021/05/23 12:28:50;;;;;;;7.18;2.13;;;18.70;43.80;;;;;;5029079;28;20049;-71
2021/05/23 12:31:21;;;;;;;6.00;1.77;;;18.60;43.30;;;;;;5021348;28;20037;-69
2021/05/23 12:33:54;;;;;;;6.43;1.92;;;18.60;44.00;;;;;;5021877;28;20030;-70
2021/05/23 12:36:21;;;;;;;10.52;5.53;;;18.90;43.70;;;;;;5024123;28;20034;-70
2021/05/23 12:38:59;;;;;;;6.90;2.20;;;18.90;43.90;;;;;;5024054;28;20029;-70
2021/05/23 12:41:39;;;;;;;8.98;3.20;;;18.80;44.40;;;;;;5020535;28;20500;-70
2021/05/23 12:44:21;;;;;;;5.32;1.80;;;18.50;44.30;;;;;;5018933;28;20421;-70
2021/05/23 12:46:48;;;;;;;4.20;1.70;;;18.60;44.00;;;;;;5006955;28;20050;-69
2021/05/23 12:49:19;;;;;;;4.65;1.80;;;18.60;44.10;;;;;;5025213;28;20485;-69